Time;durP1;ratioP1;P1;durP2;ratioP2;P2;SDS_P1;SDS_P2;PMS_P1;PMS_P2;Temp;Humidity;BMP_temperature;BMP_pressure;BME280_temperature;BME280_humidity;BME280_pressure;Samples;Min_cycle;Max_cycle;Signal;HPM_P1;HPM_P2
2020/12/01 00:00:06;;;;;;;0.40;0.40;;;;;;;;;;5057944;28;20051;-73
2020/12/01 00:02:31;;;;;;;0.40;0.40;;;;;;;;;;5075858;28;20024;-73
2020/12/01 00:04:57;;;;;;;0.40;0.40;;;;;;;;;;5080976;28;20383;-73
2020/12/01 00:07:22;;;;;;;0.40;0.40;;;;;;;;;;5096052;28;20435;-73
2020/12/01 00:09:47;;;;;;;0.50;0.50;;;;;;;;;;5061296;28;20027;-73
2020/12/01 00:12:12;;;;;;;0.50;0.50;;;;;;;;;;5077587;28;20024;-73
2020/12/01 00:14:38;;;;;;;0.50;0.50;;;;;;;;;;5060716;28;20020;-73
2020/12/01 00:17:03;;;;;;;0.45;0.45;;;;;;;;;;5095772;28;20096;-73
2020/12/01 00:19:29;;;;;;;0.50;0.50;;;;;;;;;;5060856;28;20436;-73
2020/12/01 00:21:54;;;;;;;0.40;0.40;;;;;;;;;;5094482;28;20119;-73
2020/12/01 00:24:20;;;;;;;0.40;0.40;;;;;;;;;;5077795;28;20030;-73
2020/12/01 00:26:45;;;;;;;0.40;0.40;;;;;;;;;;5093603;28;20660;-73
2020/12/01 00:29:11;;;;;;;0.40;0.40;;;;;;;;;;5077248;28;20028;-72
2020/12/01 00:31:39;;;;;;;0.40;0.40;;;;;;;;;;5045610;28;20028;-72
2020/12/01 00:34:05;;;;;;;0.40;0.40;;;;;;;;;;5075047;28;20021;-72
2020/12/01 00:36:30;;;;;;;0.40;0.40;;;;;;;;;;5090547;28;20043;-72
2020/12/01 00:38:55;;;;;;;0.40;0.40;;;;;;;;;;5077950;28;20082;-73
2020/12/01 00:41:21;;;;;;;0.40;0.40;;;;;;;;;;5060557;28;20159;-73
2020/12/01 00:43:46;;;;;;;0.50;0.50;;;;;;;;;;5076661;28;20027;-73
2020/12/01 00:46:12;;;;;;;0.50;0.50;;;;;;;;;;5061217;28;20020;-73
2020/12/01 00:48:37;;;;;;;0.40;0.40;;;;;;;;;;5094953;28;20273;-73
2020/12/01 00:51:02;;;;;;;0.50;0.50;;;;;;;;;;5077395;28;20085;-73
2020/12/01 00:53:28;;;;;;;0.40;0.40;;;;;;;;;;5077103;28;20265;-73
2020/12/01 00:55:53;;;;;;;0.50;0.50;;;;;;;;;;5059954;28;20429;-73
2020/12/01 00:58:19;;;;;;;0.40;0.40;;;;;;;;;;5100495;28;20040;-73
2020/12/01 01:00:45;;;;;;;0.50;0.50;;;;;;;;;;5097142;28;20103;-73
2020/12/01 01:03:11;;;;;;;0.40;0.40;;;;;;;;;;5115342;28;20012;-74
2020/12/01 01:05:36;;;;;;;0.50;0.50;;;;;;;;;;5097072;28;20491;-74
2020/12/01 01:08:01;;;;;;;0.50;0.50;;;;;;;;;;5069601;28;20035;-73
2020/12/01 01:10:28;;;;;;;0.40;0.40;;;;;;;;;;5073490;28;20460;-73
2020/12/01 01:12:53;;;;;;;0.40;0.40;;;;;;;;;;5073361;28;20021;-74
2020/12/01 01:15:19;;;;;;;0.50;0.50;;;;;;;;;;5073465;28;20035;-74
2020/12/01 01:17:44;;;;;;;0.40;0.40;;;;;;;;;;5081845;28;20043;-74
2020/12/01 01:20:09;;;;;;;0.40;0.40;;;;;;;;;;5056297;28;20024;-73
2020/12/01 01:22:35;;;;;;;0.40;0.40;;;;;;;;;;5073369;28;20044;-72
2020/12/01 01:25:00;;;;;;;0.50;0.50;;;;;;;;;;5073097;28;20464;-73
2020/12/01 01:27:26;;;;;;;0.40;0.40;;;;;;;;;;5071411;28;20054;-73
2020/12/01 01:29:51;;;;;;;0.40;0.40;;;;;;;;;;5094352;28;20028;-73
2020/12/01 01:32:17;;;;;;;0.40;0.40;;;;;;;;;;5076400;28;20024;-73
2020/12/01 01:34:42;;;;;;;0.40;0.40;;;;;;;;;;5076194;28;20270;-73
2020/12/01 01:37:08;;;;;;;0.40;0.40;;;;;;;;;;5075913;28;20031;-73
2020/12/01 01:39:33;;;;;;;0.40;0.40;;;;;;;;;;5094386;28;20024;-73
2020/12/01 01:41:58;;;;;;;0.40;0.40;;;;;;;;;;5059698;28;20111;-72
2020/12/01 01:44:25;;;;;;;0.40;0.40;;;;;;;;;;5093972;28;20262;-73
2020/12/01 01:46:51;;;;;;;0.40;0.40;;;;;;;;;;5076047;28;20124;-73
2020/12/01 01:49:18;;;;;;;0.40;0.40;;;;;;;;;;5059050;28;20077;-72
2020/12/01 01:51:46;;;;;;;0.40;0.40;;;;;;;;;;5075660;28;20380;-72
2020/12/01 01:54:11;;;;;;;0.50;0.50;;;;;;;;;;5059188;28;20067;-72
2020/12/01 01:56:38;;;;;;;0.40;0.40;;;;;;;;;;5055612;28;20028;-72
2020/12/01 01:59:03;;;;;;;0.40;0.40;;;;;;;;;;5052046;28;21060;-73
2020/12/01 02:01:28;;;;;;;0.40;0.40;;;;;;;;;;5070429;28;20016;-72
2020/12/01 02:03:55;;;;;;;0.40;0.40;;;;;;;;;;5072276;28;20012;-73
2020/12/01 02:06:30;;;;;;;0.40;0.40;;;;;;;;;;5055344;28;20073;-72
2020/12/01 02:08:55;;;;;;;;;;;;;;;;;;5052520;28;20055;-73
2020/12/01 02:11:21;;;;;;;0.50;0.50;;;;;;;;;;5053687;28;19904;-73
2020/12/01 02:14:00;;;;;;;0.40;0.40;;;;;;;;;;5053531;28;20029;-73
2020/12/01 02:16:25;;;;;;;0.40;0.40;;;;;;;;;;5068255;28;20460;-73
2020/12/01 02:18:52;;;;;;;0.40;0.40;;;;;;;;;;5073273;28;20020;-73
2020/12/01 02:21:28;;;;;;;0.40;0.40;;;;;;;;;;5073143;28;20380;-73
2020/12/01 02:23:53;;;;;;;0.43;0.43;;;;;;;;;;5072204;28;20020;-72
2020/12/01 02:26:19;;;;;;;0.40;0.40;;;;;;;;;;5049436;28;20025;-73
2020/12/01 02:28:44;;;;;;;0.40;0.40;;;;;;;;;;5052118;28;20021;-73
2020/12/01 02:31:10;;;;;;;0.40;0.40;;;;;;;;;;5063888;28;20048;-74
2020/12/01 02:33:35;;;;;;;0.50;0.50;;;;;;;;;;5055365;28;20027;-73
2020/12/01 02:36:00;;;;;;;0.40;0.40;;;;;;;;;;5051711;28;20094;-73
2020/12/01 02:38:25;;;;;;;0.40;0.40;;;;;;;;;;5051866;28;20547;-73
2020/12/01 02:40:50;;;;;;;0.40;0.40;;;;;;;;;;5054976;28;20024;-74
2020/12/01 02:43:16;;;;;;;0.40;0.40;;;;;;;;;;5071866;28;20019;-74
2020/12/01 02:45:41;;;;;;;0.40;0.40;;;;;;;;;;5055340;28;20016;-74
2020/12/01 02:48:06;;;;;;;0.40;0.40;;;;;;;;;;5072199;28;20029;-74
2020/12/01 02:50:32;;;;;;;0.40;0.40;;;;;;;;;;5073980;28;20028;-75
2020/12/01 02:52:57;;;;;;;0.40;0.40;;;;;;;;;;5061927;28;20085;-74
2020/12/01 02:55:23;;;;;;;0.40;0.40;;;;;;;;;;5080226;28;20021;-74
2020/12/01 02:57:48;;;;;;;0.40;0.40;;;;;;;;;;5081688;28;20047;-76
2020/12/01 03:00:14;;;;;;;0.40;0.40;;;;;;;;;;5093345;28;20027;-76
2020/12/01 03:02:39;;;;;;;0.40;0.40;;;;;;;;;;5107844;28;20016;-70
2020/12/01 03:05:04;;;;;;;0.40;0.40;;;;;;;;;;5073570;28;20383;-74
2020/12/01 03:07:30;;;;;;;0.40;0.40;;;;;;;;;;5055542;28;20025;-74
2020/12/01 03:09:55;;;;;;;0.38;0.38;;;;;;;;;;5072310;28;20116;-74
2020/12/01 03:12:20;;;;;;;0.40;0.40;;;;;;;;;;5072118;28;20024;-74
2020/12/01 03:14:45;;;;;;;0.43;0.43;;;;;;;;;;5055019;28;20024;-74
2020/12/01 03:17:11;;;;;;;0.40;0.40;;;;;;;;;;5072165;28;20091;-74
2020/12/01 03:19:36;;;;;;;0.40;0.40;;;;;;;;;;5075260;28;20465;-74
2020/12/01 03:22:01;;;;;;;0.40;0.40;;;;;;;;;;5076062;28;20384;-74
2020/12/01 03:24:27;;;;;;;0.50;0.50;;;;;;;;;;5076010;28;20115;-75
2020/12/01 03:26:52;;;;;;;0.40;0.40;;;;;;;;;;5058958;28;20075;-74
2020/12/01 03:29:18;;;;;;;0.40;0.40;;;;;;;;;;5075686;28;20031;-74
2020/12/01 03:31:43;;;;;;;0.40;0.40;;;;;;;;;;5075810;28;20103;-74
2020/12/01 03:34:08;;;;;;;0.40;0.40;;;;;;;;;;5077277;28;20052;-74
2020/12/01 03:36:34;;;;;;;0.38;0.38;;;;;;;;;;5076535;28;20540;-75
2020/12/01 03:38:59;;;;;;;0.40;0.40;;;;;;;;;;5059302;28;20021;-75
2020/12/01 03:41:24;;;;;;;0.40;0.40;;;;;;;;;;5075536;28;20487;-74
2020/12/01 03:43:50;;;;;;;0.40;0.40;;;;;;;;;;5075110;28;20534;-75
2020/12/01 03:46:16;;;;;;;0.40;0.40;;;;;;;;;;5076532;28;20457;-74
2020/12/01 03:48:41;;;;;;;0.40;0.40;;;;;;;;;;5058709;28;20032;-74
2020/12/01 03:51:07;;;;;;;0.40;0.40;;;;;;;;;;5074968;28;20408;-74
2020/12/01 03:53:33;;;;;;;0.40;0.40;;;;;;;;;;5074953;28;20281;-74
2020/12/01 03:55:58;;;;;;;0.40;0.40;;;;;;;;;;5076115;28;20017;-75
2020/12/01 03:58:24;;;;;;;0.40;0.40;;;;;;;;;;5085113;28;20097;-74
2020/12/01 04:00:49;;;;;;;0.40;0.40;;;;;;;;;;5096354;28;20027;-74
2020/12/01 04:03:15;;;;;;;0.40;0.40;;;;;;;;;;5075713;28;20024;-75
2020/12/01 04:05:40;;;;;;;0.40;0.40;;;;;;;;;;5041243;28;20016;-75
2020/12/01 04:08:06;;;;;;;0.40;0.40;;;;;;;;;;5077995;28;20258;-75
2020/12/01 04:10:32;;;;;;;0.40;0.40;;;;;;;;;;5078094;28;20305;-75
2020/12/01 04:12:57;;;;;;;0.40;0.40;;;;;;;;;;5096289;28;20031;-75
2020/12/01 04:15:23;;;;;;;0.40;0.40;;;;;;;;;;5078032;28;20379;-75
2020/12/01 04:17:49;;;;;;;0.40;0.40;;;;;;;;;;5095817;28;20023;-75
2020/12/01 04:20:14;;;;;;;0.30;0.30;;;;;;;;;;5096048;28;20028;-75
2020/12/01 04:22:40;;;;;;;0.40;0.40;;;;;;;;;;5096580;28;20442;-75
2020/12/01 04:25:05;;;;;;;0.40;0.40;;;;;;;;;;5062223;28;20105;-75
2020/12/01 04:27:31;;;;;;;0.40;0.40;;;;;;;;;;5061649;28;20032;-75
2020/12/01 04:29:57;;;;;;;0.40;0.40;;;;;;;;;;5093637;28;21969;-75
2020/12/01 04:32:22;;;;;;;0.40;0.40;;;;;;;;;;5057637;28;20016;-75
2020/12/01 04:34:48;;;;;;;0.45;0.45;;;;;;;;;;5075687;28;20035;-75
2020/12/01 04:37:13;;;;;;;0.40;0.40;;;;;;;;;;5075459;28;20025;-75
2020/12/01 04:39:38;;;;;;;0.40;0.40;;;;;;;;;;5041086;28;20032;-75
2020/12/01 04:42:04;;;;;;;0.40;0.40;;;;;;;;;;5095601;28;20012;-75
2020/12/01 04:44:30;;;;;;;0.40;0.40;;;;;;;;;;5077661;28;20035;-75
2020/12/01 04:46:57;;;;;;;0.40;0.40;;;;;;;;;;5057353;28;20112;-75
2020/12/01 04:49:24;;;;;;;0.40;0.40;;;;;;;;;;5069981;28;20024;-75
2020/12/01 04:52:08;;;;;;;0.45;0.45;;;;;;;;;;5077460;28;20034;-74
2020/12/01 04:54:38;;;;;;;0.40;0.40;;;;;;;;;;5094994;28;20073;-74
2020/12/01 04:57:22;;;;;;;0.40;0.40;;;;;;;;;;5060566;28;20078;-74
2020/12/01 05:00:05;;;;;;;0.38;0.38;;;;;;;;;;5055606;28;20469;-75
2020/12/01 05:02:37;;;;;;;0.40;0.40;;;;;;;;;;5053734;28;20073;-75
2020/12/01 05:05:14;;;;;;;0.45;0.45;;;;;;;;;;5054989;28;20079;-75
2020/12/01 05:08:00;;;;;;;0.40;0.40;;;;;;;;;;5053522;28;20653;-75
2020/12/01 05:10:25;;;;;;;0.50;0.50;;;;;;;;;;5054822;28;20017;-75
2020/12/01 05:12:55;;;;;;;0.40;0.40;;;;;;;;;;5053746;28;20036;-75
2020/12/01 05:15:21;;;;;;;0.40;0.40;;;;;;;;;;5050385;28;20837;-75
2020/12/01 05:18:05;;;;;;;0.40;0.40;;;;;;;;;;5033423;28;20029;-75
2020/12/01 05:20:30;;;;;;;0.40;0.40;;;;;;;;;;5034513;28;20085;-75
2020/12/01 05:22:56;;;;;;;0.40;0.40;;;;;;;;;;5033461;28;20525;-75
2020/12/01 05:25:26;;;;;;;0.40;0.40;;;;;;;;;;5029345;28;20769;-75
2020/12/01 05:28:01;;;;;;;0.40;0.40;;;;;;;;;;5017579;28;20018;-75
2020/12/01 05:30:27;;;;;;;0.40;0.40;;;;;;;;;;5053162;28;20291;-75
2020/12/01 05:32:53;;;;;;;0.40;0.40;;;;;;;;;;5054965;28;20542;-75
2020/12/01 05:35:20;;;;;;;0.40;0.40;;;;;;;;;;5050212;28;20100;-75
2020/12/01 05:37:52;;;;;;;0.40;0.40;;;;;;;;;;5038065;28;20028;-75
2020/12/01 05:40:17;;;;;;;0.40;0.40;;;;;;;;;;5054487;28;20088;-75
2020/12/01 05:42:42;;;;;;;0.40;0.40;;;;;;;;;;5052184;28;20487;-75
2020/12/01 05:45:08;;;;;;;0.40;0.40;;;;;;;;;;5036730;28;20017;-75
2020/12/01 05:47:38;;;;;;;0.40;0.40;;;;;;;;;;5036423;28;20469;-75
2020/12/01 05:50:04;;;;;;;0.40;0.40;;;;;;;;;;5056891;28;20372;-75
2020/12/01 05:52:29;;;;;;;0.40;0.40;;;;;;;;;;5053785;28;20025;-75
2020/12/01 05:55:03;;;;;;;0.40;0.40;;;;;;;;;;5049999;28;20268;-75
2020/12/01 05:57:28;;;;;;;0.43;0.43;;;;;;;;;;5025905;28;20052;-75
2020/12/01 05:59:57;;;;;;;0.40;0.40;;;;;;;;;;5063636;28;20017;-76
2020/12/01 06:02:29;;;;;;;0.40;0.40;;;;;;;;;;5084041;28;20027;-73
2020/12/01 06:04:54;;;;;;;0.40;0.40;;;;;;;;;;5093504;28;20035;-74
2020/12/01 06:07:24;;;;;;;0.40;0.40;;;;;;;;;;5094570;28;20016;-75
2020/12/01 06:10:00;;;;;;;0.50;0.50;;;;;;;;;;5073704;28;20019;-72
2020/12/01 06:12:31;;;;;;;0.40;0.40;;;;;;;;;;5057121;28;20021;-73
2020/12/01 06:15:03;;;;;;;0.40;0.40;;;;;;;;;;5091116;28;20043;-73
2020/12/01 06:17:47;;;;;;;0.40;0.40;;;;;;;;;;5093824;28;20717;-73
2020/12/01 06:20:20;;;;;;;0.30;0.30;;;;;;;;;;5093007;28;20040;-73
2020/12/01 06:23:01;;;;;;;0.30;0.30;;;;;;;;;;5059688;28;20030;-73
2020/12/01 06:25:32;;;;;;;0.30;0.30;;;;;;;;;;5093907;28;20008;-72
2020/12/01 06:28:17;;;;;;;0.38;0.38;;;;;;;;;;5075934;28;20042;-74
2020/12/01 06:31:01;;;;;;;0.35;0.35;;;;;;;;;;5041682;28;20036;-73
2020/12/01 06:33:46;;;;;;;0.40;0.40;;;;;;;;;;5093313;28;20024;-73
2020/12/01 06:36:11;;;;;;;0.40;0.40;;;;;;;;;;5057050;28;20038;-73
2020/12/01 06:38:44;;;;;;;0.50;0.50;;;;;;;;;;5074458;28;20111;-73
2020/12/01 06:41:14;;;;;;;0.40;0.40;;;;;;;;;;5055066;28;20267;-74
2020/12/01 06:43:41;;;;;;;0.40;0.40;;;;;;;;;;5059383;28;20488;-73
2020/12/01 06:46:26;;;;;;;0.40;0.40;;;;;;;;;;5074111;28;20020;-73
2020/12/01 06:48:51;;;;;;;0.40;0.40;;;;;;;;;;5063267;28;20039;-73
2020/12/01 06:51:16;;;;;;;0.40;0.40;;;;;;;;;;5056758;28;20039;-73
2020/12/01 06:53:42;;;;;;;0.40;0.40;;;;;;;;;;5073551;28;20020;-73
2020/12/01 06:56:07;;;;;;;0.40;0.40;;;;;;;;;;5073953;28;20024;-73
2020/12/01 06:58:32;;;;;;;0.35;0.35;;;;;;;;;;5091078;28;20036;-73
2020/12/01 07:01:03;;;;;;;0.40;0.40;;;;;;;;;;5073213;28;20488;-72
2020/12/01 07:03:28;;;;;;;0.40;0.40;;;;;;;;;;5092134;28;20016;-73
2020/12/01 07:05:54;;;;;;;0.45;0.45;;;;;;;;;;5091620;28;20376;-73
2020/12/01 07:08:23;;;;;;;0.40;0.40;;;;;;;;;;5057394;28;20028;-72
2020/12/01 07:10:58;;;;;;;0.40;0.40;;;;;;;;;;5073961;28;20755;-73
2020/12/01 07:13:29;;;;;;;0.40;0.40;;;;;;;;;;5055656;28;20024;-73
2020/12/01 07:15:55;;;;;;;0.40;0.40;;;;;;;;;;5055138;28;20415;-73
2020/12/01 07:18:29;;;;;;;0.40;0.40;;;;;;;;;;5071581;28;20035;-73
2020/12/01 07:21:13;;;;;;;0.40;0.40;;;;;;;;;;5066833;28;20020;-73
2020/12/01 07:23:46;;;;;;;0.40;0.40;;;;;;;;;;5074851;28;20265;-73
2020/12/01 07:26:11;;;;;;;0.40;0.40;;;;;;;;;;5054916;28;20031;-73
2020/12/01 07:28:39;;;;;;;0.40;0.40;;;;;;;;;;5072491;28;20028;-73
2020/12/01 07:31:18;;;;;;;0.40;0.40;;;;;;;;;;5054827;28;20817;-73
2020/12/01 07:33:48;;;;;;;0.40;0.40;;;;;;;;;;5074907;28;20023;-73
2020/12/01 07:36:33;;;;;;;0.40;0.40;;;;;;;;;;5057897;28;20027;-74
2020/12/01 07:39:13;;;;;;;0.40;0.40;;;;;;;;;;5074421;28;20124;-74
2020/12/01 07:41:48;;;;;;;0.40;0.40;;;;;;;;;;5054322;28;20044;-74
2020/12/01 07:44:14;;;;;;;;;;;;;;;;;;5084951;28;20407;-74
2020/12/01 07:49:14;;;;;;;0.30;0.30;;;;;;;;;;5075587;28;20024;-74
2020/12/01 07:51:40;;;;;;;0.32;0.32;;;;;;;;;;5058115;28;20486;-74
2020/12/01 07:54:05;;;;;;;0.40;0.40;;;;;;;;;;5058128;28;20012;-75
2020/12/01 07:56:30;;;;;;;0.40;0.40;;;;;;;;;;5074228;28;20085;-76
2020/12/01 07:59:03;;;;;;;0.40;0.40;;;;;;;;;;5070750;28;20049;-75
2020/12/01 08:01:29;;;;;;;0.40;0.40;;;;;;;;;;5071137;28;20024;-75
2020/12/01 08:04:02;;;;;;;0.40;0.40;;;;;;;;;;5083261;28;20422;-75
2020/12/01 08:06:28;;;;;;;0.40;0.40;;;;;;;;;;5075829;28;20535;-75
2020/12/01 08:08:53;;;;;;;0.40;0.40;;;;;;;;;;5060736;28;20025;-75
2020/12/01 08:11:19;;;;;;;0.40;0.40;;;;;;;;;;5055335;28;20035;-75
2020/12/01 08:13:45;;;;;;;0.40;0.40;;;;;;;;;;5074379;28;20012;-75
2020/12/01 08:16:11;;;;;;;0.40;0.40;;;;;;;;;;5054969;28;20037;-74
2020/12/01 08:18:36;;;;;;;0.40;0.40;;;;;;;;;;5059557;28;20498;-74
2020/12/01 08:21:02;;;;;;;0.40;0.40;;;;;;;;;;5059428;28;20078;-76
2020/12/01 08:23:28;;;;;;;0.40;0.40;;;;;;;;;;5054772;28;20021;-76
2020/12/01 08:26:20;;;;;;;0.40;0.40;;;;;;;;;;5065908;28;20464;-76
2020/12/01 08:28:48;;;;;;;0.40;0.40;;;;;;;;;;5054512;28;20029;-76
2020/12/01 08:31:39;;;;;;;0.40;0.40;;;;;;;;;;5054956;28;20044;-76
2020/12/01 08:34:18;;;;;;;0.40;0.40;;;;;;;;;;5069649;28;20477;-76
2020/12/01 08:36:50;;;;;;;0.40;0.40;;;;;;;;;;5053319;28;20017;-76
2020/12/01 08:39:34;;;;;;;0.40;0.40;;;;;;;;;;5057407;28;20024;-77
2020/12/01 08:42:16;;;;;;;0.30;0.30;;;;;;;;;;5063393;28;20029;-75
2020/12/01 08:44:52;;;;;;;0.40;0.40;;;;;;;;;;5054135;28;20468;-74
2020/12/01 08:47:20;;;;;;;0.40;0.40;;;;;;;;;;5063335;28;20035;-74
2020/12/01 08:49:47;;;;;;;0.47;0.47;;;;;;;;;;5056548;28;20023;-73
2020/12/01 08:52:33;;;;;;;0.30;0.30;;;;;;;;;;5057710;28;20113;-73
2020/12/01 08:54:59;;;;;;;0.40;0.40;;;;;;;;;;5055057;28;20362;-73
2020/12/01 08:57:33;;;;;;;0.30;0.30;;;;;;;;;;5074455;28;20017;-73
2020/12/01 09:00:06;;;;;;;0.32;0.32;;;;;;;;;;5057293;28;20127;-73
2020/12/01 09:02:36;;;;;;;0.30;0.30;;;;;;;;;;5076116;28;20027;-70
2020/12/01 09:05:01;;;;;;;0.40;0.40;;;;;;;;;;5059863;28;20078;-70
2020/12/01 09:07:30;;;;;;;0.38;0.38;;;;;;;;;;5076146;28;20507;-70
2020/12/01 09:10:11;;;;;;;0.35;0.35;;;;;;;;;;5077369;28;20023;-70
2020/12/01 09:12:47;;;;;;;0.38;0.38;;;;;;;;;;5094578;28;20099;-70
2020/12/01 09:15:28;;;;;;;0.38;0.38;;;;;;;;;;5082303;28;20391;-70
2020/12/01 09:18:11;;;;;;;0.40;0.40;;;;;;;;;;5059046;28;20086;-71
2020/12/01 09:21:52;;;;;;;0.30;0.30;;;;;;;;;;5082729;28;20063;-70
2020/12/01 09:23:38;;;;;;;0.30;0.30;;;;;;;;;;5091374;28;20024;-70
2020/12/01 09:26:14;;;;;;;0.40;0.40;;;;;;;;;;5090395;28;20036;-70
2020/12/01 09:28:44;;;;;;;0.30;0.30;;;;;;;;;;5076683;28;20024;-70
2020/12/01 09:31:09;;;;;;;0.40;0.40;;;;;;;;;;5055365;28;20021;-72
2020/12/01 09:33:34;;;;;;;0.40;0.40;;;;;;;;;;5077396;28;20036;-72
2020/12/01 09:36:00;;;;;;;0.40;0.40;;;;;;;;;;5076465;28;20031;-72
2020/12/01 09:38:25;;;;;;;0.30;0.30;;;;;;;;;;5094283;28;20016;-72
2020/12/01 09:40:52;;;;;;;0.40;0.40;;;;;;;;;;5059527;28;20064;-72
2020/12/01 09:43:28;;;;;;;0.35;0.35;;;;;;;;;;5075825;28;20107;-71
2020/12/01 09:45:55;;;;;;;0.30;0.30;;;;;;;;;;5056269;28;20474;-71
2020/12/01 09:48:30;;;;;;;0.30;0.30;;;;;;;;;;5070739;28;20073;-72
2020/12/01 09:50:56;;;;;;;0.30;0.30;;;;;;;;;;5087821;28;20020;-72
2020/12/01 10:15:28;;;;;;;0.30;0.30;;;;;;;;;;5074756;28;20051;-72
2020/12/01 10:35:43;;;;;;;0.40;0.40;;;;;;;;;;5072922;28;20186;-72
2020/12/01 10:38:08;;;;;;;0.38;0.38;;;;;;;;;;5055104;28;20107;-72
2020/12/01 10:40:33;;;;;;;0.30;0.30;;;;;;;;;;5072326;28;20020;-72
2020/12/01 10:42:58;;;;;;;0.30;0.30;;;;;;;;;;5055247;28;20016;-72
2020/12/01 10:45:24;;;;;;;0.40;0.40;;;;;;;;;;5072186;28;20024;-72
2020/12/01 10:47:49;;;;;;;0.40;0.40;;;;;;;;;;5054716;28;20016;-73
2020/12/01 10:50:15;;;;;;;0.30;0.30;;;;;;;;;;5054301;28;20039;-72
2020/12/01 10:52:40;;;;;;;0.40;0.40;;;;;;;;;;5050961;28;20025;-72
2020/12/01 10:55:06;;;;;;;0.40;0.40;;;;;;;;;;5066156;28;20043;-71
2020/12/01 10:57:31;;;;;;;0.30;0.30;;;;;;;;;;5071865;28;20074;-71
2020/12/01 10:59:56;;;;;;;0.30;0.30;;;;;;;;;;5065926;28;20030;-74
2020/12/01 11:02:22;;;;;;;0.32;0.32;;;;;;;;;;5094397;28;20028;-73
2020/12/01 11:04:47;;;;;;;0.40;0.40;;;;;;;;;;5109382;28;20498;-71
2020/12/01 11:07:13;;;;;;;0.40;0.40;;;;;;;;;;5091729;28;20055;-70
2020/12/01 11:09:38;;;;;;;0.30;0.30;;;;;;;;;;5037410;28;20384;-70
2020/12/01 11:12:03;;;;;;;0.30;0.30;;;;;;;;;;5090672;28;20055;-71
2020/12/01 11:14:28;;;;;;;0.40;0.40;;;;;;;;;;5077594;28;20015;-70
2020/12/01 11:16:53;;;;;;;0.30;0.30;;;;;;;;;;5061317;28;20020;-71
2020/12/01 11:19:19;;;;;;;0.30;0.30;;;;;;;;;;5073281;28;20034;-72
2020/12/01 11:21:44;;;;;;;0.40;0.40;;;;;;;;;;5085939;28;20065;-72
2020/12/01 11:24:09;;;;;;;0.40;0.40;;;;;;;;;;5061361;28;20077;-72
2020/12/01 11:26:34;;;;;;;0.38;0.38;;;;;;;;;;5048043;28;20008;-72
2020/12/01 11:29:00;;;;;;;0.30;0.30;;;;;;;;;;5072585;28;20105;-71
2020/12/01 11:31:25;;;;;;;0.40;0.40;;;;;;;;;;5081316;28;20023;-72
2020/12/01 11:33:58;;;;;;;0.30;0.30;;;;;;;;;;5095078;28;20806;-73
2020/12/01 11:36:23;;;;;;;0.40;0.40;;;;;;;;;;5095197;28;20028;-73
2020/12/01 11:38:49;;;;;;;0.40;0.40;;;;;;;;;;5084578;28;20016;-73
2020/12/01 11:41:15;;;;;;;0.30;0.30;;;;;;;;;;5093973;28;20016;-73
2020/12/01 11:43:41;;;;;;;0.30;0.30;;;;;;;;;;5078635;28;20511;-73
2020/12/01 11:46:06;;;;;;;0.30;0.30;;;;;;;;;;5061622;28;20020;-73
2020/12/01 11:48:31;;;;;;;0.30;0.30;;;;;;;;;;5078344;28;20472;-73
2020/12/01 11:50:57;;;;;;;0.40;0.40;;;;;;;;;;5061238;28;20063;-73
2020/12/01 11:53:22;;;;;;;0.30;0.30;;;;;;;;;;5096807;28;20027;-73
2020/12/01 11:55:47;;;;;;;0.30;0.30;;;;;;;;;;5078534;28;20047;-73
2020/12/01 11:58:13;;;;;;;0.30;0.30;;;;;;;;;;5054544;28;20122;-73
2020/12/01 12:00:39;;;;;;;0.30;0.30;;;;;;;;;;5068209;28;20021;-72
2020/12/01 12:03:04;;;;;;;0.35;0.35;;;;;;;;;;5072428;28;20100;-72
2020/12/01 12:05:29;;;;;;;0.30;0.30;;;;;;;;;;5061222;28;20008;-72
2020/12/01 12:07:55;;;;;;;0.30;0.30;;;;;;;;;;5051010;28;20017;-71
2020/12/01 12:10:20;;;;;;;0.38;0.38;;;;;;;;;;5034354;28;20151;-72
2020/12/01 12:12:46;;;;;;;0.30;0.30;;;;;;;;;;5036276;28;20025;-73
2020/12/01 12:15:11;;;;;;;0.40;0.40;;;;;;;;;;5050548;28;20024;-71
2020/12/01 12:17:36;;;;;;;0.40;0.40;;;;;;;;;;5034095;28;20035;-71
2020/12/01 12:20:02;;;;;;;0.20;0.20;;;;;;;;;;5050752;28;20033;-71
2020/12/01 12:22:27;;;;;;;0.30;0.30;;;;;;;;;;5054252;28;20029;-72
2020/12/01 12:24:52;;;;;;;0.30;0.30;;;;;;;;;;5055442;28;20017;-71
2020/12/01 12:27:18;;;;;;;0.40;0.40;;;;;;;;;;5033489;28;20079;-71
2020/12/01 12:29:43;;;;;;;0.30;0.30;;;;;;;;;;5066912;28;20029;-70
2020/12/01 12:32:09;;;;;;;0.30;0.30;;;;;;;;;;5053277;28;20370;-71
2020/12/01 12:34:34;;;;;;;0.38;0.38;;;;;;;;;;5067870;28;20031;-70
2020/12/01 12:36:59;;;;;;;0.22;0.22;;;;;;;;;;5074598;28;20051;-71
2020/12/01 12:39:25;;;;;;;0.40;0.40;;;;;;;;;;5054940;28;20024;-70
2020/12/01 12:41:50;;;;;;;0.30;0.30;;;;;;;;;;5072076;28;20077;-70
2020/12/01 12:44:15;;;;;;;0.30;0.30;;;;;;;;;;5056016;28;20021;-71
2020/12/01 12:46:40;;;;;;;0.38;0.38;;;;;;;;;;5056319;28;20024;-71
2020/12/01 12:49:06;;;;;;;0.38;0.38;;;;;;;;;;5036448;28;20025;-72
2020/12/01 12:51:31;;;;;;;0.30;0.30;;;;;;;;;;5053704;28;20526;-72
2020/12/01 12:53:57;;;;;;;0.30;0.30;;;;;;;;;;5053580;28;20024;-71
2020/12/01 12:56:23;;;;;;;0.30;0.30;;;;;;;;;;5069802;28;20740;-72
2020/12/01 12:58:48;;;;;;;0.30;0.30;;;;;;;;;;5062239;28;20134;-71
2020/12/01 13:01:14;;;;;;;0.30;0.30;;;;;;;;;;5073073;28;20024;-72
2020/12/01 13:03:39;;;;;;;0.30;0.30;;;;;;;;;;5086817;28;20015;-71
2020/12/01 13:06:04;;;;;;;0.30;0.30;;;;;;;;;;5093261;28;20111;-72
2020/12/01 13:08:29;;;;;;;0.40;0.40;;;;;;;;;;5062464;28;20036;-72
2020/12/01 13:10:55;;;;;;;0.30;0.30;;;;;;;;;;5074896;28;20016;-73
2020/12/01 13:13:20;;;;;;;0.40;0.40;;;;;;;;;;5093122;28;20024;-72
2020/12/01 13:15:45;;;;;;;0.30;0.30;;;;;;;;;;5075885;28;20023;-73
2020/12/01 13:18:11;;;;;;;0.30;0.30;;;;;;;;;;5093003;28;20101;-73
2020/12/01 13:20:37;;;;;;;0.30;0.30;;;;;;;;;;5076160;28;20048;-72
2020/12/01 13:23:02;;;;;;;0.30;0.30;;;;;;;;;;5073419;28;20027;-73
2020/12/01 13:25:30;;;;;;;0.30;0.30;;;;;;;;;;5072143;28;20020;-72
2020/12/01 13:27:55;;;;;;;0.30;0.30;;;;;;;;;;5072539;28;20063;-70
2020/12/01 13:30:21;;;;;;;0.30;0.30;;;;;;;;;;5071538;28;20752;-69
2020/12/01 13:32:46;;;;;;;0.32;0.32;;;;;;;;;;5052517;28;20024;-71
2020/12/01 13:35:12;;;;;;;0.30;0.30;;;;;;;;;;5069810;28;20025;-71
2020/12/01 13:37:37;;;;;;;0.30;0.30;;;;;;;;;;5036239;28;20384;-72
2020/12/01 13:40:05;;;;;;;0.30;0.30;;;;;;;;;;5052690;28;20021;-71
2020/12/01 13:42:31;;;;;;;0.30;0.30;;;;;;;;;;5044505;28;20465;-71
2020/12/01 13:44:56;;;;;;;0.30;0.30;;;;;;;;;;5069808;28;20013;-70
2020/12/01 13:47:21;;;;;;;0.32;0.32;;;;;;;;;;5055149;28;20035;-69
2020/12/01 13:49:46;;;;;;;0.40;0.40;;;;;;;;;;5066919;28;20040;-70
2020/12/01 13:52:12;;;;;;;0.30;0.30;;;;;;;;;;5044521;28;20032;-71
2020/12/01 13:54:37;;;;;;;0.38;0.38;;;;;;;;;;5088313;28;20032;-71
2020/12/01 13:57:02;;;;;;;0.30;0.30;;;;;;;;;;5092154;28;20024;-71
2020/12/01 13:59:28;;;;;;;0.30;0.30;;;;;;;;;;5077183;28;20044;-70
2020/12/01 14:01:56;;;;;;;0.30;0.30;;;;;;;;;;5073144;28;20055;-70
2020/12/01 14:04:21;;;;;;;0.30;0.30;;;;;;;;;;5071923;28;20012;-70
2020/12/01 14:06:50;;;;;;;0.30;0.30;;;;;;;;;;5071474;28;20415;-70
2020/12/01 14:09:15;;;;;;;0.30;0.30;;;;;;;;;;5055095;28;20021;-70
2020/12/01 14:11:40;;;;;;;0.30;0.30;;;;;;;;;;5071666;28;20016;-70
2020/12/01 14:14:05;;;;;;;0.30;0.30;;;;;;;;;;5071908;28;20048;-70
2020/12/01 14:16:31;;;;;;;0.30;0.30;;;;;;;;;;5073315;28;20588;-70
2020/12/01 14:18:56;;;;;;;0.30;0.30;;;;;;;;;;5055281;28;20178;-70
2020/12/01 14:21:22;;;;;;;0.30;0.30;;;;;;;;;;5071858;28;20032;-70
2020/12/01 14:23:47;;;;;;;0.35;0.35;;;;;;;;;;5055309;28;20388;-70
2020/12/01 14:26:13;;;;;;;0.30;0.30;;;;;;;;;;5071882;28;20472;-70
2020/12/01 14:28:38;;;;;;;0.30;0.30;;;;;;;;;;5081840;28;20085;-71
2020/12/01 14:31:04;;;;;;;0.40;0.40;;;;;;;;;;5054295;28;20042;-70
2020/12/01 14:33:29;;;;;;;0.30;0.30;;;;;;;;;;5051457;28;20381;-70
2020/12/01 14:35:54;;;;;;;0.30;0.30;;;;;;;;;;5054583;28;20055;-70
2020/12/01 14:38:20;;;;;;;0.30;0.30;;;;;;;;;;5066077;28;20085;-71
2020/12/01 14:40:45;;;;;;;0.30;0.30;;;;;;;;;;5047411;28;20052;-71
2020/12/01 14:43:12;;;;;;;0.30;0.30;;;;;;;;;;5068253;28;20027;-71
2020/12/01 14:45:38;;;;;;;0.30;0.30;;;;;;;;;;5049332;28;20559;-70
2020/12/01 14:48:18;;;;;;;0.30;0.30;;;;;;;;;;5051759;28;20115;-71
2020/12/01 14:51:10;;;;;;;0.30;0.30;;;;;;;;;;5068248;28;20434;-70
2020/12/01 14:53:39;;;;;;;0.30;0.30;;;;;;;;;;5029613;28;20070;-71
2020/12/01 14:56:08;;;;;;;0.30;0.30;;;;;;;;;;5068846;28;20392;-71
2020/12/01 14:58:49;;;;;;;0.30;0.30;;;;;;;;;;5069443;28;20055;-71
2020/12/01 15:01:32;;;;;;;0.30;0.30;;;;;;;;;;5067966;28;20021;-71
2020/12/01 15:04:16;;;;;;;0.30;0.30;;;;;;;;;;5071767;28;20435;-71
2020/12/01 15:07:00;;;;;;;0.40;0.40;;;;;;;;;;5084633;28;20063;-73
2020/12/01 15:09:32;;;;;;;0.20;0.20;;;;;;;;;;5097892;28;20024;-72
2020/12/01 15:11:57;;;;;;;0.30;0.30;;;;;;;;;;5113160;28;20039;-71
2020/12/01 15:14:23;;;;;;;0.30;0.30;;;;;;;;;;5106719;28;20019;-72
2020/12/01 15:17:03;;;;;;;0.30;0.30;;;;;;;;;;5091734;28;20028;-71
2020/12/01 15:19:29;;;;;;;0.30;0.30;;;;;;;;;;5072603;28;20820;-71
2020/12/01 15:21:55;;;;;;;0.30;0.30;;;;;;;;;;5073098;28;20024;-70
2020/12/01 15:24:22;;;;;;;0.30;0.30;;;;;;;;;;5072747;28;20024;-70
2020/12/01 15:26:47;;;;;;;0.30;0.30;;;;;;;;;;5072586;28;20025;-72
2020/12/01 15:29:12;;;;;;;0.20;0.20;;;;;;;;;;5072330;28;20027;-70